Time;durP1;ratioP1;P1;durP2;ratioP2;P2;SDS_P1;SDS_P2;PMS_P1;PMS_P2;Temp;Humidity;BMP_temperature;BMP_pressure;BME280_temperature;BME280_humidity;BME280_pressure;Samples;Min_cycle;Max_cycle;Signal;HPM_P1;HPM_P2
2023/07/13 00:01:28;;;;;;;20.52;8.93;;;;;;;;;;6277123;22;20125;-89
2023/07/13 00:03:55;;;;;;;17.25;9.15;;;;;;;;;;6277109;22;20052;-89
2023/07/13 00:06:21;;;;;;;13.15;8.48;;;;;;;;;;6250191;22;20004;-89
2023/07/13 00:08:47;;;;;;;14.00;8.38;;;;;;;;;;6277061;22;20007;-89
2023/07/13 00:11:14;;;;;;;13.60;8.13;;;;;;;;;;6277286;22;20053;-89
2023/07/13 00:13:40;;;;;;;15.52;7.82;;;;;;;;;;6276869;22;20011;-90
2023/07/13 00:16:06;;;;;;;14.00;8.25;;;;;;;;;;6277302;22;20074;-89
2023/07/13 00:18:32;;;;;;;14.90;7.95;;;;;;;;;;6277218;22;20315;-90
2023/07/13 00:21:04;;;;;;;10.55;7.03;;;;;;;;;;6250327;22;20039;-90
2023/07/13 00:23:34;;;;;;;10.77;7.38;;;;;;;;;;6250014;22;20376;-89
2023/07/13 00:26:04;;;;;;;11.73;7.47;;;;;;;;;;6277199;22;20000;-90
2023/07/13 00:28:30;;;;;;;12.25;7.25;;;;;;;;;;6249890;22;20427;-90
2023/07/13 00:30:55;;;;;;;13.43;8.45;;;;;;;;;;6264303;22;20022;-91
2023/07/13 00:33:22;;;;;;;12.40;7.78;;;;;;;;;;6307836;22;19999;-90
2023/07/13 00:35:48;;;;;;;10.52;7.20;;;;;;;;;;6308301;22;20003;-88
2023/07/13 00:38:14;;;;;;;11.35;6.90;;;;;;;;;;6282785;22;20014;-90
2023/07/13 00:40:40;;;;;;;11.05;6.95;;;;;;;;;;6282793;22;20441;-90
2023/07/13 00:43:20;;;;;;;10.73;6.93;;;;;;;;;;6282668;22;19999;-89
2023/07/13 00:45:45;;;;;;;11.45;7.72;;;;;;;;;;6282663;22;20009;-89
2023/07/13 00:48:20;;;;;;;9.35;6.72;;;;;;;;;;6282797;22;20386;-88
2023/07/13 00:50:51;;;;;;;9.32;6.82;;;;;;;;;;6310034;22;20003;-90
2023/07/13 00:53:17;;;;;;;11.35;6.90;;;;;;;;;;6309725;22;19996;-89
2023/07/13 00:55:43;;;;;;;9.25;6.55;;;;;;;;;;6310097;22;20022;-89
2023/07/13 00:58:09;;;;;;;10.70;7.28;;;;;;;;;;6310075;22;20415;-89
2023/07/13 01:00:37;;;;;;;13.25;6.63;;;;;;;;;;6282640;22;19999;-89
2023/07/13 01:03:04;;;;;;;11.87;6.67;;;;;;;;;;6309612;22;20007;-89
2023/07/13 01:05:32;;;;;;;9.93;6.68;;;;;;;;;;6282615;22;20078;-91
2023/07/13 01:07:59;;;;;;;10.48;7.00;;;;;;;;;;6282627;22;20003;-90
2023/07/13 01:10:25;;;;;;;10.18;6.85;;;;;;;;;;6310155;22;19999;-91
2023/07/13 01:12:51;;;;;;;9.68;6.80;;;;;;;;;;6309882;22;20373;-90
2023/07/13 01:15:40;;;;;;;10.23;6.70;;;;;;;;;;6309822;22;20011;-91
2023/07/13 01:18:07;;;;;;;9.63;6.22;;;;;;;;;;6282439;22;20092;-89
2023/07/13 01:20:36;;;;;;;10.23;6.50;;;;;;;;;;6311439;22;20005;-90
2023/07/13 01:23:12;;;;;;;8.82;5.82;;;;;;;;;;6281983;22;19999;-89
2023/07/13 01:25:38;;;;;;;10.75;6.22;;;;;;;;;;6282070;22;20086;-87
2023/07/13 01:28:05;;;;;;;8.75;6.50;;;;;;;;;;6282227;22;20026;-88
2023/07/13 01:30:31;;;;;;;9.18;6.40;;;;;;;;;;6300019;22;20015;-91
2023/07/13 01:32:57;;;;;;;10.77;6.68;;;;;;;;;;6251467;22;20015;-91
2023/07/13 01:35:25;;;;;;;12.68;7.10;;;;;;;;;;6251546;22;20082;-91
2023/07/13 01:37:51;;;;;;;12.23;6.45;;;;;;;;;;6251654;22;20003;-88
2023/07/13 01:40:16;;;;;;;7.57;5.60;;;;;;;;;;6251590;22;20079;-91
2023/07/13 01:42:42;;;;;;;7.10;5.88;;;;;;;;;;6278405;22;20011;-89
2023/07/13 01:45:08;;;;;;;5.97;4.80;;;;;;;;;;6278649;22;20036;-88
2023/07/13 01:47:33;;;;;;;6.13;4.50;;;;;;;;;;6278519;22;20000;-88
2023/07/13 01:49:59;;;;;;;6.82;4.32;;;;;;;;;;6278414;22;20005;-87
2023/07/13 01:52:24;;;;;;;6.53;4.93;;;;;;;;;;6251214;22;20007;-88
2023/07/13 01:54:50;;;;;;;6.00;4.88;;;;;;;;;;6251349;22;20445;-87
2023/07/13 01:57:15;;;;;;;9.85;4.40;;;;;;;;;;6278348;22;20004;-91
2023/07/13 01:59:41;;;;;;;7.03;4.53;;;;;;;;;;6278375;22;20004;-89
2023/07/13 02:02:06;;;;;;;5.72;4.55;;;;;;;;;;6251242;22;20446;-89
2023/07/13 02:04:32;;;;;;;4.93;4.43;;;;;;;;;;6251393;22;20026;-91
2023/07/13 02:06:57;;;;;;;6.53;4.70;;;;;;;;;;6278031;22;20446;-87
2023/07/13 02:09:23;;;;;;;6.10;4.50;;;;;;;;;;6278340;22;20004;-87
2023/07/13 02:11:48;;;;;;;5.38;4.63;;;;;;;;;;6251179;22;20038;-88
2023/07/13 02:14:15;;;;;;;5.13;4.30;;;;;;;;;;6278184;22;20003;-87
2023/07/13 02:16:40;;;;;;;6.70;4.75;;;;;;;;;;6251059;22;20053;-87
2023/07/13 02:19:06;;;;;;;6.63;4.45;;;;;;;;;;6278494;22;19999;-92
2023/07/13 02:21:31;;;;;;;7.05;4.90;;;;;;;;;;6278439;22;20000;-91
2023/07/13 02:23:57;;;;;;;6.05;4.95;;;;;;;;;;6278112;22;20011;-90
2023/07/13 02:26:23;;;;;;;8.25;4.57;;;;;;;;;;6278063;22;20031;-91
2023/07/13 02:28:48;;;;;;;7.38;4.78;;;;;;;;;;6278348;22;20039;-90
2023/07/13 02:31:15;;;;;;;6.97;4.40;;;;;;;;;;6269318;22;20434;-90
2023/07/13 02:33:41;;;;;;;7.00;4.32;;;;;;;;;;6281514;22;20002;-88
2023/07/13 02:36:07;;;;;;;6.80;4.53;;;;;;;;;;6309227;22;20003;-91
2023/07/13 02:38:34;;;;;;;4.93;4.00;;;;;;;;;;6309052;22;20345;-87
2023/07/13 02:41:00;;;;;;;6.00;4.10;;;;;;;;;;6308937;22;20473;-87
2023/07/13 02:43:25;;;;;;;5.30;4.15;;;;;;;;;;6281550;22;20037;-91
2023/07/13 02:45:51;;;;;;;5.28;3.50;;;;;;;;;;6309030;22;20000;-91
2023/07/13 02:48:17;;;;;;;5.97;3.70;;;;;;;;;;6281506;22;20003;-91
2023/07/13 02:50:43;;;;;;;5.70;4.00;;;;;;;;;;6308927;22;20007;-86
2023/07/13 02:53:09;;;;;;;4.55;3.67;;;;;;;;;;6308552;22;20084;-87
2023/07/13 02:55:34;;;;;;;3.72;3.35;;;;;;;;;;6308837;22;20000;-88
2023/07/13 02:58:00;;;;;;;6.75;4.45;;;;;;;;;;6281363;22;19999;-87
2023/07/13 03:00:25;;;;;;;5.57;3.40;;;;;;;;;;6308349;22;19999;-87
2023/07/13 03:02:50;;;;;;;6.47;3.67;;;;;;;;;;6308822;22;19999;-88
2023/07/13 03:05:16;;;;;;;6.65;4.13;;;;;;;;;;6308612;22;20022;-87
2023/07/13 03:07:43;;;;;;;6.20;4.07;;;;;;;;;;6281344;22;20003;-91
2023/07/13 03:10:09;;;;;;;5.57;4.35;;;;;;;;;;6281253;22;20007;-87
2023/07/13 03:12:35;;;;;;;4.93;4.00;;;;;;;;;;6308691;22;20006;-92
2023/07/13 03:15:00;;;;;;;5.00;3.70;;;;;;;;;;6308466;22;20049;-87
2023/07/13 03:17:26;;;;;;;6.25;3.80;;;;;;;;;;6281292;22;20090;-87
2023/07/13 03:19:51;;;;;;;4.80;3.63;;;;;;;;;;6308605;22;19995;-90
2023/07/13 03:22:18;;;;;;;6.43;3.88;;;;;;;;;;6308610;22;20003;-91
2023/07/13 03:24:44;;;;;;;5.00;3.67;;;;;;;;;;6281363;22;20068;-91
2023/07/13 03:27:09;;;;;;;7.03;4.07;;;;;;;;;;6281085;22;20042;-90
2023/07/13 03:29:35;;;;;;;6.22;4.63;;;;;;;;;;6281267;22;20480;-91
2023/07/13 03:32:00;;;;;;;6.75;4.32;;;;;;;;;;6280012;22;20073;-89
2023/07/13 03:34:26;;;;;;;7.80;4.60;;;;;;;;;;6250663;22;20042;-91
2023/07/13 03:36:54;;;;;;;6.95;4.18;;;;;;;;;;6277275;22;20053;-90
2023/07/13 03:39:20;;;;;;;5.80;5.13;;;;;;;;;;6250229;22;20497;-86
2023/07/13 03:41:45;;;;;;;8.30;4.93;;;;;;;;;;6277390;22;20004;-86
2023/07/13 03:44:11;;;;;;;5.13;4.20;;;;;;;;;;6250358;22;20015;-87
2023/07/13 03:46:37;;;;;;;6.95;4.32;;;;;;;;;;6277670;22;20067;-87
2023/07/13 03:49:04;;;;;;;4.43;3.72;;;;;;;;;;6250375;22;20096;-87
2023/07/13 03:51:29;;;;;;;5.15;4.07;;;;;;;;;;6250256;22;20011;-87
2023/07/13 03:53:55;;;;;;;4.15;3.50;;;;;;;;;;6277203;22;20004;-89
2023/07/13 03:56:20;;;;;;;6.80;3.78;;;;;;;;;;6277700;22;20050;-91
2023/07/13 03:58:48;;;;;;;4.68;3.67;;;;;;;;;;6250347;22;20007;-87
2023/07/13 04:01:15;;;;;;;4.20;3.80;;;;;;;;;;6250398;22;20007;-88
2023/07/13 04:03:41;;;;;;;4.28;3.20;;;;;;;;;;6277055;22;20006;-88
2023/07/13 04:06:14;;;;;;;3.65;3.35;;;;;;;;;;6277468;22;20003;-86
2023/07/13 04:08:41;;;;;;;3.78;3.38;;;;;;;;;;6250198;22;20004;-90
2023/07/13 04:11:06;;;;;;;7.15;3.95;;;;;;;;;;6279030;22;20415;-87
2023/07/13 04:13:32;;;;;;;5.32;3.45;;;;;;;;;;6279356;22;20000;-87
2023/07/13 04:15:57;;;;;;;4.15;3.33;;;;;;;;;;6279711;22;20415;-90
2023/07/13 04:18:23;;;;;;;6.13;4.07;;;;;;;;;;6279042;22;20018;-87
2023/07/13 04:20:50;;;;;;;5.03;4.53;;;;;;;;;;6279607;22;20036;-86
2023/07/13 04:23:16;;;;;;;4.45;4.00;;;;;;;;;;6279304;22;20006;-90
2023/07/13 04:25:46;;;;;;;4.00;3.53;;;;;;;;;;6279572;22;19995;-89
2023/07/13 04:28:12;;;;;;;4.00;3.40;;;;;;;;;;6279659;22;19995;-88
2023/07/13 04:30:37;;;;;;;4.05;3.63;;;;;;;;;;6262465;22;20098;-87
2023/07/13 04:33:04;;;;;;;3.90;3.30;;;;;;;;;;6310430;22;19996;-87
2023/07/13 04:35:30;;;;;;;3.92;3.33;;;;;;;;;;6283395;22;20015;-87
2023/07/13 04:37:56;;;;;;;3.55;3.10;;;;;;;;;;6310245;22;20007;-90
2023/07/13 04:40:21;;;;;;;4.07;3.22;;;;;;;;;;6310389;22;20003;-88
2023/07/13 04:42:47;;;;;;;3.80;3.40;;;;;;;;;;6310351;22;20434;-87
2023/07/13 04:45:14;;;;;;;4.03;3.22;;;;;;;;;;6310377;22;20304;-87
2023/07/13 04:47:40;;;;;;;3.72;3.20;;;;;;;;;;6310564;22;20000;-91
2023/07/13 04:50:08;;;;;;;3.70;3.40;;;;;;;;;;6310297;22;20000;-90
2023/07/13 04:52:34;;;;;;;5.28;3.20;;;;;;;;;;6283223;22;20342;-96
2023/07/13 04:55:00;;;;;;;5.38;3.35;;;;;;;;;;6310680;22;20029;-88
2023/07/13 04:57:26;;;;;;;3.60;3.30;;;;;;;;;;6283530;22;20406;-95
2023/07/13 04:59:52;;;;;;;3.50;3.20;;;;;;;;;;6284381;22;20418;-89
2023/07/13 05:02:17;;;;;;;3.83;3.50;;;;;;;;;;6314181;22;19999;-88
2023/07/13 05:04:47;;;;;;;4.18;3.80;;;;;;;;;;6284326;22;20018;-91
2023/07/13 05:07:13;;;;;;;3.90;3.50;;;;;;;;;;6284332;22;20083;-93
2023/07/13 05:09:39;;;;;;;3.80;3.50;;;;;;;;;;6312146;22;20003;-90
2023/07/13 05:12:07;;;;;;;3.80;3.50;;;;;;;;;;6310702;22;20004;-87
2023/07/13 05:14:32;;;;;;;5.22;4.00;;;;;;;;;;6284069;22;20304;-94
2023/07/13 05:16:58;;;;;;;5.45;3.60;;;;;;;;;;6315138;22;20076;-86
2023/07/13 05:19:23;;;;;;;7.10;3.75;;;;;;;;;;6321119;22;20018;-85
2023/07/13 05:21:52;;;;;;;3.75;3.45;;;;;;;;;;6267260;22;20007;-85
2023/07/13 05:24:18;;;;;;;5.20;3.97;;;;;;;;;;6316035;22;19999;-86
2023/07/13 05:27:00;;;;;;;5.95;5.38;;;;;;;;;;6317200;22;20011;-87
2023/07/13 05:29:25;;;;;;;5.47;4.40;;;;;;;;;;6321000;22;19999;-90
2023/07/13 05:34:23;;;;;;;5.38;3.50;;;;;;;;;;6282023;22;20099;-87
2023/07/13 05:39:14;;;;;;;3.25;2.95;;;;;;;;;;6291749;22;20012;-87
2023/07/13 05:41:40;;;;;;;3.58;3.28;;;;;;;;;;6214722;22;21469;-84
2023/07/13 05:44:05;;;;;;;2.80;2.60;;;;;;;;;;6284906;22;20047;-85
2023/07/13 05:46:31;;;;;;;3.22;2.92;;;;;;;;;;6283936;22;20458;-85
2023/07/13 05:48:56;;;;;;;4.60;3.17;;;;;;;;;;6296880;22;20004;-86
2023/07/13 05:51:22;;;;;;;4.15;2.95;;;;;;;;;;6269077;22;20003;-88
2023/07/13 05:53:47;;;;;;;3.47;3.17;;;;;;;;;;6295313;22;20043;-88
2023/07/13 05:56:13;;;;;;;4.38;3.22;;;;;;;;;;6298014;22;20004;-84
2023/07/13 05:58:38;;;;;;;3.47;3.17;;;;;;;;;;6299806;22;20042;-86
2023/07/13 06:01:10;;;;;;;7.25;3.75;;;;;;;;;;6266879;22;20031;-87
2023/07/13 06:03:37;;;;;;;5.70;3.65;;;;;;;;;;6290217;22;20022;-88
2023/07/13 06:06:07;;;;;;;3.42;3.13;;;;;;;;;;6282546;22;19996;-86
2023/07/13 06:08:32;;;;;;;4.93;4.03;;;;;;;;;;6253021;22;20010;-88
2023/07/13 06:11:06;;;;;;;3.60;3.20;;;;;;;;;;6277897;22;20095;-85
2023/07/13 06:13:33;;;;;;;3.78;3.08;;;;;;;;;;6251109;22;20496;-86
2023/07/13 06:15:58;;;;;;;3.33;3.03;;;;;;;;;;6278909;22;20007;-94
2023/07/13 06:18:24;;;;;;;3.70;3.40;;;;;;;;;;6278975;22;20326;-91
2023/07/13 09:40:59;;;;;;;12.95;6.78;;;;;;;;;;6308218;22;20019;-83
2023/07/13 09:43:25;;;;;;;8.05;5.40;;;;;;;;;;6309466;22;20011;-85
2023/07/13 09:45:51;;;;;;;6.68;4.85;;;;;;;;;;6309424;22;20053;-84
2023/07/13 09:48:18;;;;;;;5.32;4.82;;;;;;;;;;6309799;22;20410;-85
2023/07/13 09:50:44;;;;;;;5.22;4.63;;;;;;;;;;6309114;22;20003;-84
2023/07/13 09:53:18;;;;;;;5.28;4.43;;;;;;;;;;6309249;22;20334;-83
2023/07/13 09:55:46;;;;;;;4.65;4.15;;;;;;;;;;6309230;22;20007;-83
2023/07/13 09:58:22;;;;;;;5.47;4.32;;;;;;;;;;6309072;22;19999;-83
2023/07/13 10:01:02;;;;;;;5.13;4.38;;;;;;;;;;6309328;22;20011;-84
2023/07/13 10:03:32;;;;;;;5.07;4.57;;;;;;;;;;6309094;22;20025;-84
2023/07/13 10:06:11;;;;;;;5.03;4.30;;;;;;;;;;6309220;22;20061;-84
2023/07/13 10:08:37;;;;;;;4.57;4.18;;;;;;;;;;6310359;22;20361;-88
2023/07/13 10:11:22;;;;;;;4.80;4.22;;;;;;;;;;6309313;22;19999;-88
2023/07/13 10:13:59;;;;;;;4.97;4.45;;;;;;;;;;6282421;22;20003;-89
2023/07/13 10:16:34;;;;;;;4.70;4.20;;;;;;;;;;6309777;22;19999;-89
2023/07/13 10:19:11;;;;;;;4.47;4.07;;;;;;;;;;6283887;22;20407;-89
2023/07/13 10:21:42;;;;;;;6.93;5.65;;;;;;;;;;6309910;22;20008;-86
2023/07/13 10:24:21;;;;;;;4.25;3.85;;;;;;;;;;6309998;22;20004;-85
2023/07/13 10:27:17;;;;;;;5.25;4.75;;;;;;;;;;6309905;22;20070;-84
2023/07/13 10:29:48;;;;;;;5.07;4.30;;;;;;;;;;6255351;22;20049;-85
2023/07/13 10:32:15;;;;;;;5.60;4.45;;;;;;;;;;6309530;22;20002;-85
2023/07/13 10:34:44;;;;;;;4.50;4.10;;;;;;;;;;6309416;22;20033;-86
2023/07/13 10:37:21;;;;;;;4.25;3.90;;;;;;;;;;6309645;22;20292;-85
2023/07/13 10:39:48;;;;;;;3.72;3.42;;;;;;;;;;6309631;22;20491;-84
2023/07/13 10:42:23;;;;;;;4.00;3.70;;;;;;;;;;6281524;22;20007;-80
2023/07/13 10:44:49;;;;;;;4.88;3.80;;;;;;;;;;6309176;22;20003;-81
2023/07/13 10:47:17;;;;;;;5.65;3.25;;;;;;;;;;6308568;22;20006;-81
2023/07/13 10:49:44;;;;;;;3.88;3.13;;;;;;;;;;6309050;22;19999;-81
2023/07/13 10:52:54;;;;;;;4.22;3.10;;;;;;;;;;6309389;22;20007;-82
2023/07/13 10:55:53;;;;;;;3.90;3.60;;;;;;;;;;6183901;23;20009;-82
2023/07/13 10:58:39;;;;;;;2.90;2.70;;;;;;;;;;6184725;23;20032;-82
2023/07/13 11:01:18;;;;;;;3.42;3.13;;;;;;;;;;6293847;22;20013;-81
2023/07/13 11:03:43;;;;;;;3.72;2.88;;;;;;;;;;6309318;22;20003;-80
2023/07/13 11:06:12;;;;;;;3.10;2.78;;;;;;;;;;6308614;22;20003;-80
2023/07/13 11:08:43;;;;;;;3.35;2.60;;;;;;;;;;6309742;22;20370;-86
2023/07/13 11:11:23;;;;;;;2.78;2.58;;;;;;;;;;6310831;22;20006;-83
2023/07/13 11:14:09;;;;;;;3.42;3.13;;;;;;;;;;6314289;22;20006;-84
2023/07/13 11:16:36;;;;;;;3.00;2.80;;;;;;;;;;6186814;23;20344;-81
2023/07/13 11:19:02;;;;;;;4.20;2.78;;;;;;;;;;6185294;23;20007;-81
2023/07/13 11:21:30;;;;;;;3.53;3.03;;;;;;;;;;6185377;23;20036;-80
2023/07/13 11:24:12;;;;;;;3.87;2.60;;;;;;;;;;6185269;23;20009;-81
2023/07/13 11:26:50;;;;;;;3.13;2.67;;;;;;;;;;6184873;23;20959;-82
2023/07/13 11:29:39;;;;;;;3.30;2.97;;;;;;;;;;6186260;23;20009;-81
2023/07/13 11:32:22;;;;;;;;;;;;;;;;;;6188309;23;20219;-83
2023/07/13 11:34:48;;;;;;;2.67;2.47;;;;;;;;;;6184247;23;19986;-81
2023/07/13 11:37:17;;;;;;;2.90;2.60;;;;;;;;;;6183944;23;20506;-82
2023/07/13 11:39:45;;;;;;;2.30;2.10;;;;;;;;;;6183825;23;20021;-82
2023/07/13 11:42:17;;;;;;;2.55;2.35;;;;;;;;;;6183861;23;20008;-82
2023/07/13 11:44:46;;;;;;;2.53;2.33;;;;;;;;;;6183673;23;20044;-82
2023/07/13 16:41:24;;;;;;;;;;;;;;;;;;6236712;22;20385;-86
2023/07/13 16:43:49;;;;;;;;;;;;;;;;;;6246965;23;19912;-81
2023/07/13 16:46:18;;;;;;;;;;;;;;;;;;6246886;23;19935;-83
2023/07/13 16:48:43;;;;;;;;;;;;;;;;;;6246836;23;19934;-81
2023/07/13 16:51:09;;;;;;;;;;;;;;;;;;6246956;23;20373;-83
2023/07/13 16:53:34;;;;;;;;;;;;;;;;;;6246811;23;19908;-81
2023/07/13 16:56:00;;;;;;;;;;;;;;;;;;6246699;23;19912;-82
2023/07/13 16:58:28;;;;;;;;;;;;;;;;;;6246508;23;19915;-81
2023/07/13 17:00:53;;;;;;;;;;;;;;;;;;6246729;23;19964;-81
2023/07/13 17:03:20;;;;;;;;;;;;;;;;;;6246980;23;19912;-82
2023/07/13 17:05:48;;;;;;;;;;;;;;;;;;6246797;23;19907;-81
2023/07/13 17:08:21;;;;;;;;;;;;;;;;;;6270422;22;19907;-80
2023/07/13 17:10:51;;;;;;;;;;;;;;;;;;6246747;23;19914;-81
2023/07/13 17:13:17;;;;;;;;;;;;;;;;;;6246619;23;19969;-81
2023/07/13 17:15:47;;;;;;;;;;;;;;;;;;6246596;23;19907;-81
2023/07/13 17:18:14;;;;;;;;;;;;;;;;;;6247240;23;19998;-81
2023/07/13 17:20:44;;;;;;;;;;;;;;;;;;6248646;23;19942;-80
2023/07/13 17:23:24;;;;;;;;;;;;;;;;;;6248522;23;20354;-81
2023/07/13 17:25:53;;;;;;;;;;;;;;;;;;6248342;23;19907;-80
2023/07/13 17:28:20;;;;;;;;;;;;;;;;;;6248216;23;19907;-81
2023/07/13 17:30:47;;;;;;;;;;;;;;;;;;6248682;23;19908;-81
2023/07/13 17:33:18;;;;;;;;;;;;;;;;;;6248744;23;19911;-81
2023/07/13 17:35:43;;;;;;;;;;;;;;;;;;6247965;23;19915;-82
2023/07/13 17:38:10;;;;;;;;;;;;;;;;;;6248219;23;19991;-82
2023/07/13 17:40:37;;;;;;;;;;;;;;;;;;6245801;23;19907;-81
2023/07/13 17:43:02;;;;;;;;;;;;;;;;;;6217546;23;19912;-81
2023/07/13 17:45:29;;;;;;;;;;;;;;;;;;6217951;23;19911;-81
2023/07/13 17:47:55;;;;;;;;;;;;;;;;;;6218038;23;19915;-82
2023/07/13 17:50:44;;;;;;;;;;;;;;;;;;6218698;23;19914;-82
2023/07/13 17:53:20;;;;;;;;;;;;;;;;;;6218146;23;19962;-82
2023/07/13 17:55:45;;;;;;;;;;;;;;;;;;6218117;23;19919;-83
2023/07/13 17:58:11;;;;;;;;;;;;;;;;;;6218558;23;19908;-86
2023/07/13 18:00:39;;;;;;;;;;;;;;;;;;6219013;23;19908;-85
2023/07/13 18:03:43;;;;;;;;;;;;;;;;;;6218657;23;20339;-80
2023/07/13 18:06:16;;;;;;;;;;;;;;;;;;6172876;23;19908;-92
2023/07/13 18:08:42;;;;;;;;;;;;;;;;;;6220874;23;19912;-87
2023/07/13 18:11:08;;;;;;;;;;;;;;;;;;6219786;23;19915;-86
2023/07/13 18:13:39;;;;;;;;;;;;;;;;;;6217387;23;19918;-86
2023/07/13 18:16:05;;;;;;;;;;;;;;;;;;6217811;23;19908;-87
2023/07/13 18:18:33;;;;;;;;;;;;;;;;;;6218569;23;19983;-85
2023/07/13 18:20:59;;;;;;;;;;;;;;;;;;6219807;23;19988;-84
2023/07/13 18:23:25;;;;;;;;;;;;;;;;;;6219871;23;19915;-88
2023/07/13 18:25:52;;;;;;;;;;;;;;;;;;6218012;23;19908;-87
2023/07/13 18:28:18;;;;;;;;;;;;;;;;;;6241522;23;20329;-87
2023/07/13 18:30:45;;;;;;;;;;;;;;;;;;6218841;23;19916;-87
2023/07/13 18:33:23;;;;;;;;;;;;;;;;;;6218017;23;20319;-88
2023/07/13 18:35:48;;;;;;;;;;;;;;;;;;6217735;23;19978;-88
2023/07/13 18:38:19;;;;;;;;;;;;;;;;;;6191052;23;19915;-88
2023/07/13 18:40:46;;;;;;;;;;;;;;;;;;6217978;23;20335;-87
2023/07/13 18:43:12;;;;;;;;;;;;;;;;;;6218120;23;19935;-90
2023/07/13 18:45:38;;;;;;;;;;;;;;;;;;6218472;23;20212;-88
2023/07/13 18:48:03;;;;;;;;;;;;;;;;;;6190859;23;20370;-88
2023/07/13 18:50:30;;;;;;;;;;;;;;;;;;6217664;23;19915;-85
2023/07/13 18:52:56;;;;;;;;;;;;;;;;;;6190626;23;20315;-83
2023/07/13 18:55:22;;;;;;;;;;;;;;;;;;6217111;23;19907;-83
2023/07/13 18:57:48;;;;;;;;;;;;;;;;;;6217052;23;20459;-83
2023/07/13 19:00:14;;;;;;;;;;;;;;;;;;6217695;23;19984;-83
2023/07/13 19:02:40;;;;;;;;;;;;;;;;;;6217166;23;19907;-83
2023/07/13 19:05:20;;;;;;;;;;;;;;;;;;6217051;23;19915;-84
2023/07/13 19:07:45;;;;;;;;;;;;;;;;;;6216910;23;20007;-83
2023/07/13 19:10:15;;;;;;;;;;;;;;;;;;6216996;23;19907;-84
2023/07/13 19:12:42;;;;;;;;;;;;;;;;;;6216933;23;20247;-83
2023/07/13 19:15:18;;;;;;;;;;;;;;;;;;6216830;23;19914;-83
2023/07/13 19:17:43;;;;;;;;;;;;;;;;;;6216880;23;19912;-83
2023/07/13 19:20:13;;;;;;;;;;;;;;;;;;6216876;23;19915;-83
2023/07/13 19:22:39;;;;;;;;;;;;;;;;;;6216698;23;19907;-83
2023/07/13 19:25:04;;;;;;;;;;;;;;;;;;6217258;23;20291;-83
2023/07/13 19:27:30;;;;;;;;;;;;;;;;;;6216730;23;19992;-83
2023/07/13 19:29:55;;;;;;;;;;;;;;;;;;6217054;23;19908;-83
2023/07/13 19:32:21;;;;;;;;;;;;;;;;;;6216728;23;19907;-83
2023/07/13 19:34:49;;;;;;;;;;;;;;;;;;6216824;23;20267;-83
2023/07/13 19:37:14;;;;;;;;;;;;;;;;;;6190114;23;20319;-84
2023/07/13 19:39:40;;;;;;;;;;;;;;;;;;6190327;23;19908;-92
2023/07/13 19:42:16;;;;;;;;;;;;;;;;;;6216122;23;19915;-86
2023/07/13 19:44:41;;;;;;;;;;;;;;;;;;6240604;23;20235;-86
2023/07/13 19:47:14;;;;;;;;;;;;;;;;;;6217145;23;19907;-86
2023/07/13 19:49:39;;;;;;;;;;;;;;;;;;6216868;23;19908;-86
2023/07/13 19:52:11;;;;;;;;;;;;;;;;;;6217014;23;19915;-87
2023/07/13 19:54:41;;;;;;;;;;;;;;;;;;6216980;23;19943;-91
2023/07/13 19:57:08;;;;;;;;;;;;;;;;;;6244737;23;19915;-86
2023/07/13 19:59:34;;;;;;;;;;;;;;;;;;6217284;23;20294;-88
2023/07/13 20:01:59;;;;;;;;;;;;;;;;;;6190443;23;19912;-86
2023/07/13 20:04:25;;;;;;;;;;;;;;;;;;6216754;23;19908;-85
2023/07/13 20:06:50;;;;;;;;;;;;;;;;;;6216911;23;19920;-87
2023/07/13 20:09:18;;;;;;;;;;;;;;;;;;6216576;23;19908;-86
2023/07/13 20:11:43;;;;;;;;;;;;;;;;;;6216649;23;19914;-86
2023/07/13 20:14:24;;;;;;;2.03;1.70;;;;;;;;;;6216479;23;19994;-86
2023/07/13 20:16:56;;;;;;;1.90;1.80;;;;;;;;;;6215902;23;19996;-86
2023/07/13 20:19:21;;;;;;;2.30;1.95;;;;;;;;;;6216347;23;19996;-86
2023/07/13 20:21:47;;;;;;;4.40;2.10;;;;;;;;;;6216052;23;20000;-85
2023/07/13 20:24:19;;;;;;;1.85;1.75;;;;;;;;;;6216340;23;20005;-85
2023/07/13 20:26:45;;;;;;;3.03;2.42;;;;;;;;;;6215837;23;20011;-86
2023/07/13 20:29:12;;;;;;;2.72;2.08;;;;;;;;;;6216136;23;20420;-87
2023/07/13 20:31:38;;;;;;;2.05;1.90;;;;;;;;;;6216223;23;20071;-86
2023/07/13 20:34:04;;;;;;;2.47;1.80;;;;;;;;;;6216072;23;20008;-86
2023/07/13 20:36:32;;;;;;;2.13;1.90;;;;;;;;;;6189215;23;20305;-85
2023/07/13 20:38:58;;;;;;;1.83;1.73;;;;;;;;;;6216000;23;20011;-85
2023/07/13 20:41:24;;;;;;;3.47;1.90;;;;;;;;;;6215953;23;20444;-85
2023/07/13 20:43:50;;;;;;;3.55;2.03;;;;;;;;;;6215904;23;20175;-86
2023/07/13 20:46:17;;;;;;;2.55;1.67;;;;;;;;;;6216092;23;20027;-86
2023/07/13 20:48:47;;;;;;;2.30;2.10;;;;;;;;;;6216203;23;20421;-86
2023/07/13 20:51:15;;;;;;;3.95;2.20;;;;;;;;;;6216263;23;20000;-86
2023/07/13 20:53:43;;;;;;;2.20;1.77;;;;;;;;;;6217177;23;20000;-87
2023/07/13 20:56:16;;;;;;;2.77;1.93;;;;;;;;;;6218256;23;20016;-89
2023/07/13 20:58:42;;;;;;;;;;;;;;;;;;6192639;23;19961;-86
2023/07/13 21:01:21;;;;;;;;;;;;;;;;;;6192449;23;19939;-89
2023/07/13 21:03:48;;;;;;;;;;;;;;;;;;6218312;23;19908;-84
2023/07/13 21:06:18;;;;;;;;;;;;;;;;;;6218316;23;20311;-84
2023/07/13 21:08:44;;;;;;;;;;;;;;;;;;6218141;23;19915;-84
2023/07/13 21:11:09;;;;;;;;;;;;;;;;;;6218109;23;19912;-84
2023/07/13 21:13:34;;;;;;;;;;;;;;;;;;6218550;23;19987;-84
2023/07/13 21:16:01;;;;;;;;;;;;;;;;;;6218151;23;19908;-84
2023/07/13 21:18:26;;;;;;;;;;;;;;;;;;6218068;23;19907;-84
2023/07/13 21:20:55;;;;;;;;;;;;;;;;;;6217983;23;19908;-84
2023/07/13 21:23:27;;;;;;;;;;;;;;;;;;6218280;23;19979;-84
2023/07/13 21:25:52;;;;;;;;;;;;;;;;;;6218210;23;19958;-84
2023/07/13 21:28:18;;;;;;;;;;;;;;;;;;6218230;23;19912;-84
2023/07/13 21:30:43;;;;;;;;;;;;;;;;;;6218006;23;19918;-84
2023/07/13 21:33:14;;;;;;;;;;;;;;;;;;6219262;23;19908;-84
2023/07/13 21:35:41;;;;;;;;;;;;;;;;;;6244037;23;19908;-84
2023/07/13 21:38:16;;;;;;;;;;;;;;;;;;6219694;23;19908;-83
2023/07/13 21:40:42;;;;;;;;;;;;;;;;;;6192367;23;19904;-84
2023/07/13 21:43:11;;;;;;;;;;;;;;;;;;6218528;23;19908;-84
2023/07/13 21:45:37;;;;;;;;;;;;;;;;;;6218057;23;20379;-84
2023/07/13 21:48:02;;;;;;;;;;;;;;;;;;6217797;23;19954;-84
2023/07/13 21:50:41;;;;;;;;;;;;;;;;;;6191346;23;19914;-84
2023/07/13 21:53:14;;;;;;;;;;;;;;;;;;6217877;23;19986;-84
2023/07/13 21:55:39;;;;;;;;;;;;;;;;;;6217993;23;19915;-85
2023/07/13 21:58:09;;;;;;;;;;;;;;;;;;6217611;23;19908;-84
2023/07/13 22:00:35;;;;;;;;;;;;;;;;;;6217765;23;19908;-84
2023/07/13 22:03:00;;;;;;;;;;;;;;;;;;6191090;23;19907;-84
2023/07/13 22:05:26;;;;;;;;;;;;;;;;;;6217357;23;19908;-84
2023/07/13 22:07:51;;;;;;;;;;;;;;;;;;6218001;23;19907;-83
2023/07/13 22:10:18;;;;;;;;;;;;;;;;;;6217689;23;19908;-84
2023/07/13 22:12:43;;;;;;;;;;;;;;;;;;6241360;23;19914;-83
2023/07/13 22:15:09;;;;;;;;;;;;;;;;;;6217600;23;19908;-84
2023/07/13 22:17:35;;;;;;;;;;;;;;;;;;6217585;23;19911;-84
2023/07/13 22:20:00;;;;;;;;;;;;;;;;;;6217593;23;19907;-84
2023/07/13 22:22:26;;;;;;;;;;;;;;;;;;6217661;23;19908;-84
2023/07/13 22:24:52;;;;;;;;;;;;;;;;;;6217678;23;19907;-85
2023/07/13 22:27:17;;;;;;;;;;;;;;;;;;6217685;23;20247;-85
2023/07/13 22:29:43;;;;;;;;;;;;;;;;;;6217833;23;19908;-85
2023/07/13 22:32:11;;;;;;;;;;;;;;;;;;6217715;23;19931;-84
2023/07/13 22:34:36;;;;;;;;;;;;;;;;;;6217713;23;19914;-85
2023/07/13 22:37:02;;;;;;;;;;;;;;;;;;6217371;23;19908;-84
2023/07/13 22:39:29;;;;;;;;;;;;;;;;;;6217554;23;19908;-84
2023/07/13 22:41:54;;;;;;;;;;;;;;;;;;6217072;23;19920;-84
2023/07/13 22:44:21;;;;;;;;;;;;;;;;;;6217403;23;19943;-85
2023/07/13 22:46:47;;;;;;;;;;;;;;;;;;6217673;23;19911;-85
2023/07/13 22:49:19;;;;;;;;;;;;;;;;;;6217379;23;19908;-85
2023/07/13 22:51:45;;;;;;;;;;;;;;;;;;6240909;23;19914;-84
2023/07/13 22:54:11;;;;;;;;;;;;;;;;;;6217656;23;19907;-84
2023/07/13 22:56:36;;;;;;;;;;;;;;;;;;6217415;23;19908;-84
2023/07/13 22:59:01;;;;;;;;;;;;;;;;;;6217242;23;19908;-84
2023/07/13 23:01:27;;;;;;;;;;;;;;;;;;6217482;23;19908;-85
2023/07/13 23:03:54;;;;;;;;;;;;;;;;;;6217405;23;19991;-85
2023/07/13 23:06:30;;;;;;;;;;;;;;;;;;6217831;23;19916;-84
